Time;durP1;ratioP1;P1;durP2;ratioP2;P2;SDS_P1;SDS_P2;PMS_P1;PMS_P2;Temp;Humidity;BMP_temperature;BMP_pressure;BME280_temperature;BME280_humidity;BME280_pressure;Samples;Min_cycle;Max_cycle;Signal;HPM_P1;HPM_P2
2021/12/12 00:01:30;;;;;;;17.88;11.93;;;3.00;82.70;;;-151.14;100.00;62537.16;3942607;35;20004;-85
2021/12/12 00:04:09;;;;;;;19.20;12.43;;;3.00;82.70;;;-151.14;100.00;62537.16;3990877;35;20090;-85
2021/12/12 00:06:40;;;;;;;20.85;13.10;;;3.00;82.70;;;-151.14;100.00;62537.16;3991271;35;20087;-85
2021/12/12 00:09:21;;;;;;;19.85;12.18;;;3.00;82.70;;;-151.14;100.00;62537.16;3950853;35;19991;-85
2021/12/12 00:11:47;;;;;;;19.35;12.77;;;3.00;82.70;;;-151.14;100.00;62537.16;3990168;35;20038;-84
2021/12/12 00:14:25;;;;;;;19.30;12.88;;;3.00;82.70;;;-151.14;100.00;62537.16;3970058;35;20059;-85
2021/12/12 00:16:53;;;;;;;20.48;13.13;;;3.00;82.60;;;-151.14;100.00;62537.16;3990079;35;20530;-85
2021/12/12 00:19:20;;;;;;;18.20;11.93;;;3.00;82.50;;;-151.14;100.00;62537.16;3990968;35;20319;-84
2021/12/12 00:21:50;;;;;;;19.77;12.77;;;3.00;82.60;;;-151.14;100.00;62537.16;3929602;35;20222;-86
2021/12/12 00:24:17;;;;;;;17.77;11.68;;;3.00;82.50;;;-151.14;100.00;62537.16;3969905;35;19991;-85
2021/12/12 00:26:47;;;;;;;20.10;13.43;;;3.00;82.60;;;-151.14;100.00;62537.16;3979848;35;20020;-86
2021/12/12 00:29:14;;;;;;;18.55;12.32;;;3.00;82.70;;;-151.14;100.00;62537.16;3965802;35;20004;-86
2021/12/12 00:31:41;;;;;;;17.67;12.13;;;3.00;82.60;;;-151.14;100.00;62537.16;3966277;35;20331;-86
2021/12/12 00:34:08;;;;;;;19.27;12.63;;;3.00;82.70;;;-151.14;100.00;62537.16;3944771;35;20012;-85
2021/12/12 00:36:34;;;;;;;21.65;13.40;;;3.00;82.60;;;-151.14;100.00;62537.16;3925257;35;20218;-86
2021/12/12 00:39:20;;;;;;;21.88;13.10;;;3.00;82.60;;;-151.14;100.00;62537.16;3925164;35;20151;-85
2021/12/12 00:41:57;;;;;;;20.10;12.88;;;3.00;82.70;;;-151.14;100.00;62537.16;3963948;35;20012;-86
2021/12/12 00:44:23;;;;;;;18.50;11.90;;;3.00;82.70;;;-151.14;100.00;62537.16;3945078;35;20080;-86
2021/12/12 00:46:50;;;;;;;22.55;14.25;;;3.00;82.70;;;-151.14;100.00;62537.16;3945433;35;20040;-86
2021/12/12 00:49:18;;;;;;;19.55;13.00;;;3.00;82.70;;;-151.14;100.00;62537.16;3921917;35;20203;-85
2021/12/12 00:51:45;;;;;;;20.80;13.10;;;3.00;82.70;;;-151.14;100.00;62537.16;3948325;35;19999;-86
2021/12/12 00:54:13;;;;;;;22.25;13.45;;;3.00;82.70;;;-151.14;100.00;62537.16;3969775;35;19996;-86
2021/12/12 00:56:40;;;;;;;20.38;13.30;;;3.00;82.60;;;-151.14;100.00;62537.16;3948878;35;20006;-86
2021/12/12 00:59:07;;;;;;;21.25;13.18;;;3.00;82.70;;;-151.14;100.00;62537.16;3969864;35;20030;-85
2021/12/12 01:01:47;;;;;;;21.10;13.57;;;3.00;82.70;;;-151.14;100.00;62537.16;3948098;35;20358;-86
2021/12/12 01:04:54;;;;;;;20.17;13.85;;;3.00;82.60;;;-151.14;100.00;62537.16;3970984;35;19991;-86
2021/12/12 01:07:27;;;;;;;26.17;16.43;;;3.00;82.70;;;-151.14;100.00;62537.16;3924334;35;20496;-86
2021/12/12 01:10:08;;;;;;;20.35;13.30;;;3.00;82.70;;;-151.14;100.00;62537.16;3968705;35;20236;-86
2021/12/12 01:12:34;;;;;;;18.92;13.63;;;3.00;82.70;;;-151.14;100.00;62537.16;3945362;35;20133;-86
2021/12/12 01:15:29;;;;;;;19.83;13.30;;;3.00;82.60;;;-151.14;100.00;62537.16;3948511;35;20568;-86
2021/12/12 01:18:03;;;;;;;21.42;14.10;;;3.00;82.70;;;-151.14;100.00;62537.16;3969470;35;19987;-85
2021/12/12 01:20:41;;;;;;;21.13;13.48;;;3.00;82.70;;;-151.14;100.00;62537.16;3974352;35;19999;-85
2021/12/12 01:23:29;;;;;;;19.58;13.85;;;3.00;82.70;;;-151.14;100.00;62537.16;3932218;35;20263;-85
2021/12/12 01:25:56;;;;;;;21.02;14.20;;;3.00;82.70;;;-151.14;100.00;62537.16;3988048;35;19992;-86
2021/12/12 01:28:27;;;;;;;21.42;14.05;;;3.00;82.70;;;-151.14;100.00;62537.16;3969626;35;20109;-83
2021/12/12 01:30:55;;;;;;;21.58;14.55;;;3.00;82.70;;;-151.14;100.00;62537.16;3989807;35;20007;-83
2021/12/12 01:33:33;;;;;;;22.45;14.02;;;3.00;82.70;;;-151.14;100.00;62537.16;3964713;35;20177;-83
2021/12/12 01:36:22;;;;;;;21.52;13.98;;;3.00;82.80;;;-151.14;100.00;62537.16;3924515;35;20106;-84
2021/12/12 01:38:54;;;;;;;22.38;14.77;;;3.00;82.70;;;-151.14;100.00;62537.16;3967330;35;20116;-83
2021/12/12 01:41:32;;;;;;;21.92;14.05;;;3.00;82.70;;;-151.14;100.00;62537.16;3932305;35;20285;-85
2021/12/12 01:44:10;;;;;;;20.48;13.70;;;3.00;82.70;;;-151.14;100.00;62537.16;3931922;35;20072;-86
2021/12/12 01:46:45;;;;;;;21.90;14.30;;;3.00;82.80;;;-151.14;100.00;62537.16;3916043;35;19996;-83
2021/12/12 01:49:42;;;;;;;21.60;14.25;;;3.00;82.70;;;-151.14;100.00;62537.16;3932087;35;20507;-86
2021/12/12 01:52:14;;;;;;;22.95;14.65;;;3.00;82.70;;;-151.14;100.00;62537.16;3995935;35;20308;-85
2021/12/12 01:54:46;;;;;;;20.85;14.32;;;3.00;82.70;;;-151.14;100.00;62537.16;3996463;35;20312;-86
2021/12/12 01:57:39;;;;;;;23.10;14.48;;;3.00;82.70;;;-151.14;100.00;62537.16;3999622;35;19991;-86
2021/12/12 02:00:24;;;;;;;24.90;14.80;;;3.00;82.60;;;-151.14;100.00;62537.16;3965405;35;20236;-86
2021/12/12 02:02:51;;;;;;;21.60;14.30;;;3.00;82.70;;;-151.14;100.00;62537.16;3969881;35;20278;-85
2021/12/12 02:05:18;;;;;;;22.75;13.88;;;3.00;82.80;;;-151.14;100.00;62537.16;3930214;35;19999;-86
2021/12/12 02:07:58;;;;;;;22.83;15.52;;;3.00;82.80;;;-151.14;100.00;62537.16;3950661;35;20217;-85
2021/12/12 02:10:36;;;;;;;23.85;14.90;;;3.00;82.90;;;-151.14;100.00;62537.16;3950113;35;20202;-85
2021/12/12 02:13:06;;;;;;;21.17;13.60;;;3.00;82.80;;;-151.14;100.00;62537.16;3950527;35;20199;-85
2021/12/12 02:15:35;;;;;;;21.73;14.05;;;3.00;82.80;;;-151.14;100.00;62537.16;3950868;35;20291;-86
2021/12/12 02:18:08;;;;;;;23.52;14.93;;;3.00;82.80;;;-151.14;100.00;62537.16;3951858;35;20109;-85
2021/12/12 02:20:42;;;;;;;25.35;15.27;;;3.00;82.70;;;-151.14;100.00;62537.16;3951959;35;20292;-86
2021/12/12 02:36:54;;;;;;;20.95;13.63;;;3.00;82.70;;;-151.14;100.00;62537.16;3957068;35;19992;-86
2021/12/12 02:39:20;;;;;;;21.67;13.77;;;3.00;82.70;;;-151.14;100.00;62537.16;3950146;35;20064;-86
2021/12/12 02:41:55;;;;;;;20.65;13.55;;;3.00;82.60;;;-151.14;100.00;62537.16;3910326;35;20274;-86
2021/12/12 02:44:28;;;;;;;21.15;13.55;;;3.00;82.70;;;-151.14;100.00;62537.16;3950930;35;20040;-86
2021/12/12 02:46:58;;;;;;;21.63;13.85;;;3.00;82.70;;;-151.14;100.00;62537.16;3950878;35;20035;-87
2021/12/12 02:52:14;;;;;;;20.73;12.90;;;3.00;82.70;;;-151.14;100.00;62537.16;3916537;35;20045;-86
2021/12/12 02:54:42;;;;;;;22.05;13.98;;;3.00;82.80;;;-151.14;100.00;62537.16;3951495;35;20006;-85
2021/12/12 02:57:12;;;;;;;20.50;12.55;;;3.00;82.70;;;-151.14;100.00;62537.16;3949695;35;20080;-85
2021/12/12 02:59:39;;;;;;;22.40;13.38;;;3.00;82.70;;;-151.14;100.00;62537.16;3950954;35;19996;-86
2021/12/12 03:02:26;;;;;;;19.45;12.23;;;3.00;82.80;;;-151.14;100.00;62537.16;3950577;35;20022;-86
2021/12/12 03:04:58;;;;;;;23.30;13.27;;;3.00;82.70;;;-151.14;100.00;62537.16;3968387;35;20420;-87
2021/12/12 03:07:26;;;;;;;17.48;12.00;;;3.00;82.70;;;-151.14;100.00;62537.16;3950747;35;20003;-87
2021/12/12 03:09:56;;;;;;;17.77;11.32;;;3.00;82.80;;;-151.14;100.00;62537.16;3968266;35;20047;-85
2021/12/12 03:12:33;;;;;;;18.98;11.57;;;3.00;83.00;;;-151.14;100.00;62537.16;3971167;35;19996;-85
2021/12/12 03:15:14;;;;;;;17.60;12.40;;;3.00;82.70;;;-151.14;100.00;62537.16;3951055;35;20232;-86
2021/12/12 03:17:43;;;;;;;17.67;10.55;;;3.00;82.70;;;-151.14;100.00;62537.16;3951051;35;20482;-86
2021/12/12 03:20:24;;;;;;;15.65;10.07;;;3.10;82.80;;;-151.14;100.00;62537.16;3950210;35;20186;-86
2021/12/12 03:23:19;;;;;;;15.95;9.98;;;3.10;83.00;;;-151.14;100.00;62537.16;3949589;35;20214;-87
2021/12/12 03:25:53;;;;;;;17.25;10.57;;;3.10;82.90;;;-151.14;100.00;62537.16;3926970;35;20165;-87
2021/12/12 03:28:23;;;;;;;15.07;9.70;;;3.10;83.20;;;-151.14;100.00;62537.16;3968607;35;20139;-85
2021/12/12 03:30:54;;;;;;;14.30;9.43;;;3.10;83.00;;;-151.14;100.00;62537.16;4012321;35;20222;-86
2021/12/12 03:33:20;;;;;;;14.60;8.50;;;3.10;82.80;;;-151.14;100.00;62537.16;3970574;35;20229;-86
2021/12/12 03:35:50;;;;;;;14.30;9.05;;;3.10;82.80;;;-151.14;100.00;62537.16;3991698;35;20473;-86
2021/12/12 03:38:16;;;;;;;15.75;9.75;;;3.10;82.80;;;-151.14;100.00;62537.16;3991543;35;20162;-86
2021/12/12 03:40:45;;;;;;;13.93;8.65;;;3.10;82.80;;;-151.14;100.00;62537.16;3970212;35;20311;-86
2021/12/12 03:43:13;;;;;;;14.07;8.82;;;3.10;82.70;;;-151.14;100.00;62537.16;3991221;35;20195;-87
2021/12/12 03:45:40;;;;;;;12.15;7.97;;;3.10;83.00;;;-151.14;100.00;62537.16;3990692;35;20077;-86
2021/12/12 03:48:23;;;;;;;12.25;7.65;;;3.10;82.80;;;-151.14;100.00;62537.16;3970177;35;20011;-87
2021/12/12 03:50:51;;;;;;;14.95;8.00;;;3.10;82.90;;;-151.14;100.00;62537.16;3947020;35;19993;-85
2021/12/12 03:53:18;;;;;;;11.93;7.80;;;3.10;82.90;;;-151.14;100.00;62537.16;3945501;35;20028;-85
2021/12/12 03:55:45;;;;;;;11.32;7.32;;;3.10;82.80;;;-151.14;100.00;62537.16;3965251;35;20248;-85
2021/12/12 03:58:12;;;;;;;12.70;7.78;;;3.10;82.80;;;-151.14;100.00;62537.16;3945034;35;20135;-85
2021/12/12 04:00:58;;;;;;;11.65;6.47;;;3.10;82.80;;;-151.14;100.00;62537.16;3987742;35;20038;-86
2021/12/12 04:03:24;;;;;;;12.73;8.10;;;3.10;82.80;;;-151.14;100.00;62537.16;3950813;35;19988;-86
2021/12/12 04:06:01;;;;;;;11.15;6.60;;;3.10;82.80;;;-151.14;100.00;62537.16;3970252;35;20088;-86
2021/12/12 04:08:34;;;;;;;10.43;6.97;;;3.10;82.90;;;-151.14;100.00;62537.16;3991445;35;19991;-86
2021/12/12 04:11:02;;;;;;;10.82;6.95;;;3.10;83.00;;;-151.14;100.00;62537.16;4011389;35;20011;-85
2021/12/12 04:13:29;;;;;;;11.68;8.05;;;3.20;83.30;;;-151.14;100.00;62537.16;4011356;35;20315;-86
2021/12/12 04:15:56;;;;;;;11.18;6.85;;;3.20;83.30;;;-151.14;100.00;62537.16;3991055;35;19999;-86
2021/12/12 04:18:25;;;;;;;9.88;6.13;;;3.20;83.70;;;-151.14;100.00;62537.16;3929596;35;20000;-86
2021/12/12 04:20:52;;;;;;;10.23;5.50;;;3.20;83.90;;;-151.14;100.00;62537.16;3970393;35;20342;-85
2021/12/12 04:23:22;;;;;;;8.65;5.30;;;3.20;83.90;;;-151.14;100.00;62537.16;3990564;35;19991;-86
2021/12/12 04:25:49;;;;;;;9.40;5.30;;;3.20;84.30;;;-151.14;100.00;62537.16;4011798;35;20067;-86
2021/12/12 04:28:16;;;;;;;8.93;5.13;;;3.20;83.90;;;-151.14;100.00;62537.16;3970440;35;20245;-87
2021/12/12 04:30:43;;;;;;;8.52;5.45;;;3.20;83.60;;;-151.14;100.00;62537.16;3949089;35;20031;-86
2021/12/12 04:33:09;;;;;;;7.22;4.75;;;3.20;83.30;;;-151.14;100.00;62537.16;4011877;35;20044;-86
2021/12/12 04:35:36;;;;;;;8.35;4.68;;;3.20;83.30;;;-151.14;100.00;62537.16;4011086;35;20251;-86
2021/12/12 04:38:04;;;;;;;6.60;4.45;;;3.20;83.30;;;-151.14;100.00;62537.16;3970274;35;20057;-86
2021/12/12 04:40:33;;;;;;;7.25;4.50;;;3.20;83.40;;;-151.14;100.00;62537.16;4000499;35;20246;-85
2021/12/12 04:43:00;;;;;;;7.75;4.80;;;3.20;83.80;;;-151.14;100.00;62537.16;3949593;35;20302;-86
2021/12/12 04:46:03;;;;;;;8.18;4.72;;;3.20;83.70;;;-151.14;100.00;62537.16;3965243;35;19993;-85
2021/12/12 04:51:50;;;;;;;6.25;3.72;;;3.20;84.10;;;-151.14;100.00;62537.16;3973320;35;20196;-87
2021/12/12 04:54:36;;;;;;;7.70;3.65;;;3.20;84.10;;;-151.14;100.00;62537.16;3991412;35;20576;-87
2021/12/12 04:57:26;;;;;;;5.28;3.30;;;3.20;84.00;;;-151.14;100.00;62537.16;3945003;35;20637;-86
2021/12/12 05:00:03;;;;;;;5.65;3.50;;;3.20;84.10;;;-151.14;100.00;62537.16;3965603;35;20005;-86
2021/12/12 05:03:09;;;;;;;6.97;3.78;;;3.20;84.40;;;-151.14;100.00;62537.16;3983998;35;20005;-85
2021/12/12 05:06:08;;;;;;;5.15;3.40;;;3.30;85.10;;;-151.14;100.00;62537.16;3900067;35;20557;-86
2021/12/12 05:09:03;;;;;;;4.28;2.83;;;3.30;84.90;;;-151.14;100.00;62537.16;3939755;35;20373;-86
2021/12/12 05:12:25;;;;;;;5.10;3.13;;;3.30;85.10;;;-151.14;100.00;62537.16;3963392;35;20239;-86
2021/12/12 05:15:17;;;;;;;4.68;2.75;;;3.30;85.20;;;-151.14;100.00;62537.16;3978934;35;20210;-86
2021/12/12 05:17:55;;;;;;;5.13;2.67;;;3.30;85.10;;;-151.14;100.00;62537.16;3973485;35;20031;-86
2021/12/12 05:20:30;;;;;;;5.07;2.88;;;3.30;85.20;;;-151.14;100.00;62537.16;3970917;35;20027;-86
2021/12/12 05:23:01;;;;;;;4.45;2.80;;;3.30;85.40;;;-151.14;100.00;62537.16;3969307;35;20007;-86
2021/12/12 05:25:36;;;;;;;4.88;2.63;;;3.30;85.40;;;-151.14;100.00;62537.16;3989948;35;20015;-86
2021/12/12 05:28:03;;;;;;;3.95;2.22;;;3.30;85.60;;;-151.14;100.00;62537.16;3949890;35;20036;-86
2021/12/12 05:30:33;;;;;;;5.70;2.22;;;3.30;85.70;;;-151.14;100.00;62537.16;3989562;35;20003;-86
2021/12/12 05:33:00;;;;;;;3.97;2.13;;;3.30;85.50;;;-151.14;100.00;62537.16;3969291;35;20289;-86
2021/12/12 05:35:32;;;;;;;4.80;1.92;;;3.30;85.60;;;-151.14;100.00;62537.16;3948951;35;20110;-86
2021/12/12 05:37:59;;;;;;;3.70;1.70;;;3.30;85.60;;;-151.14;100.00;62537.16;3990165;35;20007;-86
2021/12/12 05:40:30;;;;;;;2.40;1.45;;;3.30;85.60;;;-151.14;100.00;62537.16;3949163;35;20333;-86
2021/12/12 05:42:59;;;;;;;3.90;1.70;;;3.30;85.70;;;-151.14;100.00;62537.16;3989836;35;20362;-86
2021/12/12 05:45:28;;;;;;;3.33;1.73;;;3.30;85.50;;;-151.14;100.00;62537.16;3969366;35;19998;-86
2021/12/12 05:47:54;;;;;;;3.50;1.77;;;3.30;85.90;;;-151.14;100.00;62537.16;3969511;35;20012;-86
2021/12/12 05:50:21;;;;;;;2.67;1.60;;;3.30;85.90;;;-151.14;100.00;62537.16;3969223;35;19991;-86
2021/12/12 05:52:53;;;;;;;4.07;2.15;;;3.40;85.90;;;-151.14;100.00;62537.16;3948555;35;20011;-86
2021/12/12 05:55:24;;;;;;;3.72;1.60;;;3.40;85.60;;;-151.14;100.00;62537.16;3949323;35;20068;-86
2021/12/12 05:57:55;;;;;;;4.03;1.55;;;3.40;85.70;;;-151.14;100.00;62537.16;3948578;35;20067;-85
2021/12/12 06:00:52;;;;;;;3.30;1.65;;;3.40;85.70;;;-151.14;100.00;62537.16;3969944;35;20007;-86
2021/12/12 06:03:24;;;;;;;2.88;1.27;;;3.40;85.70;;;-151.14;100.00;62537.16;3926153;35;20060;-86
2021/12/12 06:05:51;;;;;;;3.17;1.42;;;3.40;85.50;;;-151.14;100.00;62537.16;3884751;35;20051;-86
2021/12/12 06:08:19;;;;;;;3.17;1.60;;;3.40;85.60;;;-151.14;100.00;62537.16;3904193;35;20212;-86
2021/12/12 06:10:45;;;;;;;3.75;1.33;;;3.40;85.50;;;-151.14;100.00;62537.16;3923823;35;20177;-86
2021/12/12 06:13:14;;;;;;;3.80;1.55;;;3.40;85.50;;;-151.14;100.00;62537.16;3903703;35;20242;-87
2021/12/12 06:15:45;;;;;;;3.08;1.33;;;3.40;85.70;;;-151.14;100.00;62537.16;3944011;35;20005;-87
2021/12/12 06:18:13;;;;;;;2.92;1.35;;;3.40;85.50;;;-151.14;100.00;62537.16;3943700;35;20232;-86
2021/12/12 06:20:40;;;;;;;2.47;1.10;;;3.40;85.60;;;-151.14;100.00;62537.16;3884036;35;20020;-87
2021/12/12 06:23:08;;;;;;;3.83;1.50;;;3.40;85.50;;;-151.14;100.00;62537.16;3928305;35;20071;-86
2021/12/12 06:25:35;;;;;;;2.60;1.10;;;3.40;85.10;;;-151.14;100.00;62537.16;4010302;35;20323;-86
2021/12/12 06:28:30;;;;;;;3.30;1.10;;;3.40;85.40;;;-151.14;100.00;62537.16;4010798;35;20032;-86
2021/12/12 06:30:57;;;;;;;2.67;1.00;;;3.40;84.90;;;-151.14;100.00;62537.16;3966710;35;20057;-86
2021/12/12 06:33:23;;;;;;;3.35;1.40;;;3.40;85.60;;;-151.14;100.00;62537.16;3991545;35;19996;-86
2021/12/12 06:35:50;;;;;;;3.70;1.58;;;3.40;86.00;;;-151.14;100.00;62537.16;3971420;35;20011;-85
2021/12/12 06:38:17;;;;;;;2.65;1.08;;;3.40;85.10;;;-151.14;100.00;62537.16;3930175;35;20295;-86
2021/12/12 06:40:44;;;;;;;3.25;1.38;;;3.40;85.40;;;-151.14;100.00;62537.16;3950650;35;20066;-85
2021/12/12 06:43:13;;;;;;;2.63;1.03;;;3.40;85.90;;;-151.14;100.00;62537.16;3991817;35;20634;-86
2021/12/12 06:45:40;;;;;;;3.97;1.52;;;3.40;85.40;;;-151.14;100.00;62537.16;4012826;35;20011;-86
2021/12/12 06:48:08;;;;;;;2.72;1.20;;;3.40;85.20;;;-151.14;100.00;62537.16;3991971;35;20023;-87
2021/12/12 06:50:36;;;;;;;3.97;1.30;;;3.40;85.20;;;-151.14;100.00;62537.16;3991364;35;20118;-87
2021/12/12 06:53:03;;;;;;;4.63;1.42;;;3.40;85.20;;;-151.14;100.00;62537.16;3970803;35;20110;-86
2021/12/12 06:55:30;;;;;;;3.42;1.70;;;3.40;84.90;;;-151.14;100.00;62537.16;4012731;35;20192;-86
2021/12/12 06:57:56;;;;;;;3.55;1.52;;;3.40;85.10;;;-151.14;100.00;62537.16;4012579;35;20589;-86
2021/12/12 07:00:25;;;;;;;4.57;1.50;;;3.40;84.70;;;-151.14;100.00;62537.16;3992012;35;20123;-86
2021/12/12 07:02:51;;;;;;;4.40;1.45;;;3.40;84.80;;;-151.14;100.00;62537.16;3950477;35;19995;-86
2021/12/12 07:05:23;;;;;;;2.10;1.10;;;3.40;84.40;;;-151.14;100.00;62537.16;3970455;35;20317;-86
2021/12/12 07:07:50;;;;;;;2.90;1.45;;;3.40;84.10;;;-151.14;100.00;62537.16;3992144;35;20129;-86
2021/12/12 07:10:18;;;;;;;3.25;1.10;;;3.40;84.00;;;-151.14;100.00;62537.16;3991914;35;20003;-86
2021/12/12 07:12:45;;;;;;;3.17;1.35;;;3.40;84.20;;;-151.14;100.00;62537.16;3970938;35;19995;-86
2021/12/12 07:15:15;;;;;;;3.83;1.63;;;3.40;84.80;;;-151.14;100.00;62537.16;3991290;35;20163;-85
2021/12/12 07:17:42;;;;;;;2.58;1.20;;;3.50;84.40;;;-151.14;100.00;62537.16;3991279;35;20407;-86
2021/12/12 07:20:10;;;;;;;2.33;1.08;;;3.50;85.40;;;-151.14;100.00;62537.16;3950433;35;19991;-86
2021/12/12 07:22:37;;;;;;;3.08;1.25;;;3.40;85.40;;;-151.14;100.00;62537.16;3970639;35;19995;-86
2021/12/12 07:25:06;;;;;;;3.47;1.20;;;3.50;85.70;;;-151.14;100.00;62537.16;4012154;35;20262;-86
2021/12/12 07:27:32;;;;;;;3.40;1.40;;;3.50;85.60;;;-151.14;100.00;62537.16;3950402;35;20068;-85
2021/12/12 07:29:59;;;;;;;3.05;0.98;;;3.50;86.00;;;-151.14;100.00;62537.16;3991666;35;20267;-86
2021/12/12 07:32:26;;;;;;;2.97;1.38;;;3.50;86.60;;;-151.14;100.00;62537.16;3970434;35;19994;-86
2021/12/12 07:34:52;;;;;;;2.97;0.88;;;3.50;85.50;;;-151.14;100.00;62537.16;3949922;35;20225;-86
2021/12/12 07:37:19;;;;;;;3.22;1.23;;;3.50;85.80;;;-151.14;100.00;62537.16;3991519;35;20222;-86
2021/12/12 07:39:46;;;;;;;2.72;1.13;;;3.50;85.40;;;-151.14;100.00;62537.16;3970452;35;20011;-85
2021/12/12 07:42:14;;;;;;;2.53;1.38;;;3.50;85.50;;;-151.14;100.00;62537.16;3991200;35;19991;-86
2021/12/12 07:44:41;;;;;;;3.03;1.52;;;3.50;85.10;;;-151.14;100.00;62537.16;3995082;35;20284;-86
2021/12/12 07:47:11;;;;;;;2.58;0.88;;;3.50;85.10;;;-151.14;100.00;62537.16;3974922;35;20024;-86
2021/12/12 07:49:46;;;;;;;2.25;1.15;;;3.50;85.30;;;-151.14;100.00;62537.16;3975619;35;20007;-86
2021/12/12 07:52:18;;;;;;;2.72;1.20;;;3.50;84.70;;;-151.14;100.00;62537.16;3994942;35;20180;-84
2021/12/12 07:54:46;;;;;;;3.45;0.95;;;3.50;84.50;;;-151.14;100.00;62537.16;3954082;35;19999;-83
2021/12/12 07:57:13;;;;;;;2.55;1.08;;;3.50;84.20;;;-151.14;100.00;62537.16;3975367;35;20137;-83
2021/12/12 07:59:40;;;;;;;2.78;1.20;;;3.50;84.50;;;-151.14;100.00;62537.16;3973396;35;20383;-84
2021/12/12 08:02:07;;;;;;;3.35;1.23;;;3.60;85.70;;;-151.14;100.00;62537.16;3929921;35;20233;-83
2021/12/12 08:04:33;;;;;;;2.70;1.00;;;3.60;85.60;;;-151.14;100.00;62537.16;3929515;35;19996;-84
2021/12/12 08:07:00;;;;;;;2.60;0.93;;;3.60;84.90;;;-151.14;100.00;62537.16;3929863;35;19987;-84
2021/12/12 08:09:28;;;;;;;1.67;0.80;;;3.60;84.50;;;-151.14;100.00;62537.16;3930250;35;20050;-84
2021/12/12 08:11:54;;;;;;;2.33;0.73;;;3.60;84.20;;;-151.14;100.00;62537.16;3930207;35;19987;-84
2021/12/12 08:14:26;;;;;;;2.42;0.82;;;3.60;84.10;;;-151.14;100.00;62537.16;3945393;35;20080;-84
2021/12/12 08:16:53;;;;;;;1.90;0.90;;;3.60;83.90;;;-151.14;100.00;62537.16;3925455;35;20169;-83
2021/12/12 08:19:22;;;;;;;2.85;1.05;;;3.60;83.80;;;-151.14;100.00;62537.16;3925271;35;20050;-83
2021/12/12 08:21:49;;;;;;;2.30;1.10;;;3.60;83.90;;;-151.14;100.00;62537.16;3945570;35;20090;-84
2021/12/12 08:24:16;;;;;;;1.92;1.17;;;3.60;84.10;;;-151.14;100.00;62537.16;3925016;35;20220;-83
2021/12/12 08:26:44;;;;;;;2.38;0.93;;;3.60;83.70;;;-151.14;100.00;62537.16;3925538;35;20122;-84
2021/12/12 08:29:13;;;;;;;1.83;0.90;;;3.70;83.70;;;-151.14;100.00;62537.16;3953241;35;20452;-83
2021/12/12 08:31:40;;;;;;;1.92;1.00;;;3.70;83.90;;;-151.14;100.00;62537.16;3906035;35;20011;-84
2021/12/12 08:34:08;;;;;;;4.38;1.00;;;3.70;83.60;;;-151.14;100.00;62537.16;3925888;35;20128;-82
2021/12/12 08:36:37;;;;;;;2.38;0.98;;;3.70;83.60;;;-151.14;100.00;62537.16;3946181;35;20164;-84
2021/12/12 08:39:08;;;;;;;2.63;1.08;;;3.70;83.60;;;-151.14;100.00;62537.16;3885888;35;20016;-84
2021/12/12 08:41:36;;;;;;;1.48;0.63;;;3.70;83.70;;;-151.14;100.00;62537.16;3925793;35;20284;-84
2021/12/12 08:44:05;;;;;;;3.17;0.80;;;3.70;83.60;;;-151.14;100.00;62537.16;3945454;35;20024;-83
2021/12/12 08:46:32;;;;;;;2.22;0.60;;;3.70;83.60;;;-151.14;100.00;62537.16;3925800;35;20075;-83
2021/12/12 08:48:59;;;;;;;1.65;0.88;;;3.70;83.40;;;-151.14;100.00;62537.16;3932325;35;20015;-83
2021/12/12 08:51:32;;;;;;;2.08;0.70;;;3.70;83.40;;;-151.14;100.00;62537.16;3949589;35;19987;-83
2021/12/12 08:54:12;;;;;;;3.40;0.80;;;3.70;83.60;;;-151.14;100.00;62537.16;3944846;35;20064;-83
2021/12/12 08:56:48;;;;;;;2.55;1.10;;;3.80;83.50;;;-151.14;100.00;62537.16;3947388;35;20105;-83
2021/12/12 08:59:23;;;;;;;6.03;0.98;;;3.80;83.50;;;-151.14;100.00;62537.16;3926453;35;20480;-83
2021/12/12 09:01:52;;;;;;;2.08;1.00;;;3.90;83.50;;;-151.14;100.00;62537.16;3904881;35;20580;-83
2021/12/12 09:04:19;;;;;;;1.48;0.80;;;3.90;83.40;;;-151.14;100.00;62537.16;3910025;35;19999;-83
2021/12/12 09:07:25;;;;;;;1.65;0.60;;;3.90;83.30;;;-151.14;100.00;62537.16;3945090;35;19991;-83
2021/12/12 09:10:11;;;;;;;2.10;0.70;;;4.00;83.10;;;-151.14;100.00;62537.16;3942826;35;20083;-83
2021/12/12 09:12:48;;;;;;;2.30;1.10;;;4.00;82.90;;;-151.14;100.00;62537.16;3948014;35;19988;-83
2021/12/12 09:15:21;;;;;;;2.60;1.00;;;4.00;82.80;;;-151.14;100.00;62537.16;3930023;35;20071;-82
2021/12/12 09:17:53;;;;;;;1.60;0.90;;;4.00;82.80;;;-151.14;100.00;62537.16;3944849;35;19992;-83
2021/12/12 09:20:35;;;;;;;1.77;0.68;;;4.00;82.90;;;-151.14;100.00;62537.16;3937995;35;20318;-83
2021/12/12 09:23:31;;;;;;;1.95;0.85;;;4.00;83.20;;;-151.14;100.00;62537.16;3953091;35;20542;-84
2021/12/12 09:26:13;;;;;;;1.15;0.65;;;4.00;82.90;;;-151.14;100.00;62537.16;3929857;35;19996;-84
2021/12/12 09:28:54;;;;;;;1.17;0.47;;;4.00;83.10;;;-151.14;100.00;62537.16;3932056;35;20420;-84
2021/12/12 09:31:35;;;;;;;1.67;0.65;;;4.00;82.90;;;-151.14;100.00;62537.16;3929488;35;20284;-84
2021/12/12 09:34:28;;;;;;;1.25;0.52;;;4.00;82.90;;;-151.14;100.00;62537.16;3949347;35;19988;-84
2021/12/12 09:37:02;;;;;;;1.27;0.50;;;4.00;82.90;;;-151.14;100.00;62537.16;3946010;35;20064;-84
2021/12/12 09:39:59;;;;;;;1.38;0.52;;;3.90;83.00;;;-151.14;100.00;62537.16;3950111;35;20019;-83
2021/12/12 09:42:57;;;;;;;2.28;0.88;;;3.90;82.90;;;-151.14;100.00;62537.16;3930910;35;20019;-85
2021/12/12 09:46:38;;;;;;;1.02;0.52;;;3.90;83.10;;;-151.14;100.00;62537.16;3949110;35;20208;-84
2021/12/12 09:53:28;;;;;;;1.88;0.70;;;3.90;83.20;;;-151.14;100.00;62537.16;3965852;35;20133;-83
2021/12/12 09:56:39;;;;;;;1.58;0.68;;;3.80;83.00;;;-151.14;100.00;62537.16;3969649;35;20170;-84
2021/12/12 09:59:16;;;;;;;2.45;1.00;;;3.80;83.20;;;-151.14;100.00;62537.16;3952602;35;19992;-83
2021/12/12 10:02:16;;;;;;;2.53;0.75;;;3.80;83.20;;;-151.14;100.00;62537.16;3969704;35;20242;-83
2021/12/12 10:05:13;;;;;;;2.22;0.80;;;3.80;83.20;;;-151.14;100.00;62537.16;3952318;35;20004;-84
2021/12/12 10:08:32;;;;;;;2.20;0.80;;;3.80;83.30;;;-151.14;100.00;62537.16;3951023;35;20534;-84
2021/12/12 10:11:17;;;;;;;2.10;0.80;;;3.80;83.20;;;-151.14;100.00;62537.16;3971773;35;20061;-83
2021/12/12 10:14:10;;;;;;;2.35;1.10;;;3.80;83.20;;;-151.14;100.00;62537.16;3973937;35;20000;-83
2021/12/12 10:17:00;;;;;;;2.95;0.70;;;3.80;83.20;;;-151.14;100.00;62537.16;3938491;35;19999;-83
2021/12/12 10:19:41;;;;;;;3.67;1.50;;;3.80;83.40;;;-151.14;100.00;62537.16;3934583;35;20240;-84
2021/12/12 10:22:23;;;;;;;2.47;1.45;;;3.80;83.30;;;-151.14;100.00;62537.16;3933568;35;20361;-84
2021/12/12 10:25:04;;;;;;;2.30;1.15;;;3.80;83.30;;;-151.14;100.00;62537.16;3930473;35;20314;-84
2021/12/12 10:28:15;;;;;;;3.53;1.50;;;3.80;83.40;;;-151.14;100.00;62537.16;3947133;35;20230;-83
2021/12/12 10:31:34;;;;;;;3.47;1.67;;;3.90;83.40;;;-151.14;100.00;62537.16;3914533;35;20000;-84
2021/12/12 10:34:29;;;;;;;2.80;1.30;;;3.90;83.30;;;-151.14;100.00;62537.16;3926003;35;20204;-83
2021/12/12 10:37:14;;;;;;;3.30;1.75;;;3.90;83.10;;;-151.14;100.00;62537.16;3927754;35;20099;-84
2021/12/12 10:40:21;;;;;;;2.80;1.40;;;3.90;83.10;;;-151.14;100.00;62537.16;3926526;35;20004;-82
2021/12/12 10:42:53;;;;;;;4.82;1.63;;;4.00;83.00;;;-151.14;100.00;62537.16;3929747;35;20204;-84
2021/12/12 10:45:36;;;;;;;4.35;1.50;;;4.00;83.00;;;-151.14;100.00;62537.16;3888202;35;20113;-84
2021/12/12 10:48:13;;;;;;;2.60;1.40;;;4.00;82.90;;;-151.14;100.00;62537.16;3947023;35;20012;-83
2021/12/12 10:51:17;;;;;;;4.13;1.73;;;4.00;82.80;;;-151.14;100.00;62537.16;3930315;35;19999;-84
2021/12/12 10:54:10;;;;;;;2.15;1.23;;;4.00;82.80;;;-151.14;100.00;62537.16;3935070;35;20310;-83
2021/12/12 10:56:41;;;;;;;2.90;1.10;;;4.00;82.60;;;-151.14;100.00;62537.16;3966825;35;20004;-83
2021/12/12 10:59:41;;;;;;;2.47;1.30;;;4.00;82.60;;;-151.14;100.00;62537.16;3967468;35;20102;-84